Aérodrome :







RETROUVEZ-NOUS SUR...

 
LOGIN :

S'inscrire | Disclaimer

   EN    FR    IT 

 









Légende :    VFR   VFR Marginal   IFR   IFR Intensif   IFR Très Intensif
Visi : 
Plafond : 
>= 8 km
>= 3000ft
5 à 8 km
1000 à 3000 ft
1500m à 5 km
500 à 1000 ft
800 à 1500m
200 à 500 ft
< 800m
< 200 ft
Symboles :   Orages  Brouillard  Fortes neiges  Fortes précipitations  Vent > 20 kt






- Altitude de l'aérodrome : 71 ft
- Code IATA : YBC


CYBC - Baie Comeau

DERNIER METAR :
  • 150318Z AUTO 07020G29KT 2 1/2SM -RA BR SCT005 OVC012 00/00 A2926 RMK VIS VRB 2-3 PRESFR SLP910

METARs EXPIRÉS :
  • 150240Z AUTO 07020G28KT 2SM -RA BR OVC005 00/00 A2931 RMK PRESFR SLP926
  • 150226Z AUTO 07022G30KT 1 3/4SM -RA BR BKN005 OVC010 00/00 A2932 RMK PRESFR SLP932
  • 150204Z AUTO 08020G28KT 1 3/4SM -RA BR BKN007 OVC010 01/00 A2936 RMK SLP946
  • 150154Z AUTO 07020G28KT 2 1/2SM -RA BR BKN007 OVC012 01/00 A2937 RMK PRESFR SLP949
  • 150123Z AUTO 07019G26KT 3SM -RA BR BKN007 OVC011 01/00 A2940 RMK SLP960
  • 150114Z AUTO 07018G25KT 2 1/2SM -RA BR OVC009 01/00 A2941 RMK SLP962
  • 150100Z AUTO 07018G26KT 2 1/4SM -RA BR FEW007 BKN011 OVC024 01/00 A2941 RMK PRESFR SLP963
  • 150047Z AUTO 07020G26KT 2 1/4SM -RA BR FEW008 BKN011 OVC024 01/00 A2944 RMK PRESFR SLP973
  • 150031Z AUTO 07019G29KT 2 1/2SM -UP BR BKN007 BKN012 OVC028 01/00 A2947 RMK PRESFR SLP982
  • 150027Z AUTO 07021G29KT 3SM -UP BR SCT007 BKN012 OVC028 01/00 A2947 RMK PRESFR SLP983

TAF TAF CYBC
Valide du 15 à 02h jusqu'au 15 à 14h UTC


150138Z 1502/1514 07022G32KT 3SM -RASNPL BR BKN005 OVC010
TEMPO 1502/1506 6SM -RASN BR OVC010
FM150600 07020G35KT 1SM -RASN BR OVC005
TEMPO 1506/1507 6SM -RA BR OVC006
FM150700 07020G35KT 1SM RA BR OVC003
BECMG 1510/1512 07015G25KT
BECMG 1512/1514 22025G40KT RMK FCST BASED ON AUTO OBS. NXT FCST BY 150800Z



MET'MAP, la Météo Aéronautique d'un coup d'oeil ! - Copyright ORBIFLY Décembre 2007 - Disclaimer

ORBIFLY MET'MAP TEAM :

Programmation & Développement : Alexandra Zaïnal
Sur une idée originale de : Baudouin d'Aumeries
Assistance à la programmation : Marc-Olivier Méhu
Soutien technique & logistique : Manuel Goepfert

Contact : metmap@orbifly.com




SOURCES & CREDITS :

   NOAA